createdAt,value
2018-02-15T00:01:18.692Z,21.67
2018-02-15T00:03:45.470Z,25.20
2018-02-15T00:06:12.322Z,19.37
2018-02-15T00:08:39.179Z,19.30
2018-02-15T00:11:06.076Z,18.52
2018-02-15T00:13:32.884Z,20.20
2018-02-15T00:16:00.481Z,16.50
2018-02-15T00:18:27.537Z,21.80
2018-02-15T00:20:54.366Z,24.42
2018-02-15T00:23:21.654Z,20.92
2018-02-15T00:25:48.689Z,20.42
2018-02-15T00:28:15.833Z,20.08
2018-02-15T00:30:42.740Z,26.15
2018-02-15T00:33:10.127Z,23.85
2018-02-15T00:35:36.954Z,20.83
2018-02-15T00:38:03.933Z,22.67
2018-02-15T00:40:31.093Z,20.75
2018-02-15T00:42:57.839Z,19.92
2018-02-15T00:45:24.954Z,20.15
2018-02-15T00:47:51.836Z,22.77
2018-02-15T00:50:19.234Z,20.30
2018-02-15T00:52:46.130Z,22.48
2018-02-15T00:55:12.915Z,22.62
2018-02-15T00:57:40.082Z,25.60
2018-02-15T01:00:07.173Z,18.73
2018-02-15T01:02:34.371Z,25.27
2018-02-15T01:05:01.246Z,18.50
2018-02-15T01:07:28.149Z,25.40
2018-02-15T01:09:55.069Z,18.00
2018-02-15T01:12:21.988Z,22.75
2018-02-15T01:14:48.906Z,22.42
2018-02-15T01:17:15.738Z,19.85
2018-02-15T01:19:42.620Z,23.38
2018-02-15T01:22:09.788Z,29.35
2018-02-15T01:24:36.897Z,24.95
2018-02-15T01:27:04.225Z,26.83
2018-02-15T01:29:31.077Z,26.23
2018-02-15T01:31:57.879Z,22.40
2018-02-15T01:34:24.557Z,19.62
2018-02-15T01:36:51.258Z,19.17
2018-02-15T01:39:17.896Z,20.90
2018-02-15T01:41:44.568Z,22.27
2018-02-15T01:44:11.222Z,23.02
2018-02-15T01:46:37.885Z,20.58
2018-02-15T01:49:04.566Z,19.20
2018-02-15T01:51:31.302Z,20.75
2018-02-15T01:53:57.998Z,25.23
2018-02-15T01:56:24.651Z,24.45
2018-02-15T01:58:51.334Z,24.35
2018-02-15T02:01:17.977Z,24.90
2018-02-15T02:03:44.626Z,20.75
2018-02-15T02:06:11.271Z,19.62
2018-02-15T02:08:37.939Z,18.67
2018-02-15T02:11:04.593Z,23.30
2018-02-15T02:13:31.269Z,25.77
2018-02-15T02:15:57.946Z,24.25
2018-02-15T02:18:24.609Z,20.60
2018-02-15T02:20:51.264Z,20.55
2018-02-15T02:23:17.932Z,25.42
2018-02-15T02:25:44.578Z,19.87
2018-02-15T02:28:11.255Z,23.15
2018-02-15T02:30:37.900Z,23.55
2018-02-15T02:33:04.581Z,22.60
2018-02-15T02:35:31.231Z,20.20
2018-02-15T02:37:57.914Z,22.25
2018-02-15T02:40:24.574Z,19.60
2018-02-15T02:42:51.229Z,19.62
2018-02-15T02:45:17.891Z,19.23
2018-02-15T02:47:44.545Z,18.15
2018-02-15T02:50:11.186Z,18.45
2018-02-15T02:52:37.824Z,20.20
2018-02-15T02:55:04.486Z,18.25
2018-02-15T02:57:31.135Z,19.27
2018-02-15T02:59:57.775Z,16.45
2018-02-15T03:02:24.417Z,19.55
2018-02-15T03:04:51.089Z,20.60
2018-02-15T03:07:17.786Z,21.35
2018-02-15T03:09:44.465Z,24.80
2018-02-15T03:12:11.111Z,21.27
2018-02-15T03:14:37.780Z,21.37
2018-02-15T03:17:04.423Z,18.85
2018-02-15T03:19:31.112Z,19.45
2018-02-15T03:21:57.767Z,18.10
2018-02-15T03:24:24.477Z,21.08
2018-02-15T03:26:51.124Z,22.15
2018-02-15T03:29:17.933Z,20.62
2018-02-15T03:31:44.831Z,19.83
2018-02-15T03:34:11.572Z,18.95
2018-02-15T03:36:38.219Z,17.58
2018-02-15T03:39:04.887Z,17.25
2018-02-15T03:41:31.535Z,19.37
2018-02-15T03:43:58.196Z,22.25
2018-02-15T03:46:24.826Z,21.12
2018-02-15T03:48:51.472Z,21.75
2018-02-15T03:51:18.118Z,22.65
2018-02-15T03:53:44.758Z,17.10
2018-02-15T03:56:11.404Z,20.55
2018-02-15T03:58:38.034Z,17.45
2018-02-15T04:01:04.726Z,19.55
2018-02-15T04:03:31.392Z,20.60
2018-02-15T04:05:58.031Z,17.48
2018-02-15T04:08:24.939Z,21.23
2018-02-15T04:10:51.798Z,19.15
2018-02-15T04:13:18.447Z,17.80
2018-02-15T04:15:45.082Z,19.52
2018-02-15T04:18:11.903Z,19.17
2018-02-15T04:20:38.548Z,16.12
2018-02-15T04:23:05.200Z,19.60
2018-02-15T04:25:31.851Z,19.50
2018-02-15T04:27:58.898Z,16.62
2018-02-15T04:30:26.482Z,17.20
2018-02-15T04:32:53.125Z,17.67
2018-02-15T04:35:19.768Z,20.70
2018-02-15T04:37:46.471Z,17.65
2018-02-15T04:40:13.119Z,16.33
2018-02-15T04:42:40.132Z,15.20
2018-02-15T04:45:06.816Z,14.05
2018-02-15T04:47:34.019Z,15.65
2018-02-15T04:50:00.820Z,15.27
2018-02-15T04:52:27.454Z,20.12
2018-02-15T04:54:54.134Z,17.12
2018-02-15T04:57:20.780Z,18.12
2018-02-15T04:59:47.423Z,17.87
2018-02-15T05:02:14.071Z,19.33
2018-02-15T05:04:40.720Z,23.00
2018-02-15T05:07:07.360Z,17.65
2018-02-15T05:09:34.016Z,17.80
2018-02-15T05:12:00.648Z,16.15
2018-02-15T05:14:27.291Z,16.67
2018-02-15T05:16:53.928Z,22.55
2018-02-15T05:19:20.568Z,17.98
2018-02-15T05:21:47.259Z,19.37
2018-02-15T05:24:13.903Z,16.77
2018-02-15T05:26:40.555Z,12.23
2018-02-15T05:29:07.197Z,18.30
2018-02-15T05:31:33.835Z,15.25
2018-02-15T05:34:00.537Z,22.73
2018-02-15T05:36:27.205Z,20.67
2018-02-15T05:38:53.871Z,18.17
2018-02-15T05:41:20.525Z,21.48
2018-02-15T05:43:47.186Z,16.42
2018-02-15T05:46:13.826Z,17.87
2018-02-15T05:48:40.507Z,18.20
2018-02-15T05:51:07.172Z,15.95
2018-02-15T05:53:33.845Z,18.30
2018-02-15T05:56:00.484Z,15.70
2018-02-15T05:58:27.139Z,17.02
2018-02-15T06:00:53.797Z,18.75
2018-02-15T06:03:21.449Z,25.48
2018-02-15T06:05:48.099Z,21.27
2018-02-15T06:08:14.761Z,19.45
2018-02-15T06:10:41.418Z,20.35
2018-02-15T06:13:08.082Z,17.98
2018-02-15T06:15:34.730Z,20.90
2018-02-15T06:18:01.387Z,20.10
2018-02-15T06:20:28.031Z,22.42
2018-02-15T06:22:54.668Z,15.05
2018-02-15T06:25:21.414Z,24.52
2018-02-15T06:27:48.134Z,16.75
2018-02-15T06:30:14.834Z,21.67
2018-02-15T06:32:41.505Z,22.33
2018-02-15T06:35:08.226Z,19.35
2018-02-15T06:37:34.873Z,20.77
2018-02-15T06:40:01.536Z,21.90
2018-02-15T06:42:28.181Z,18.25
2018-02-15T06:44:54.847Z,22.98
2018-02-15T06:47:21.492Z,25.75
2018-02-15T06:49:48.198Z,21.50
2018-02-15T06:52:14.852Z,22.40
2018-02-15T06:54:41.552Z,25.95
2018-02-15T06:57:08.204Z,19.60
2018-02-15T06:59:34.853Z,21.62
2018-02-15T07:02:01.524Z,23.30
2018-02-15T07:04:28.187Z,24.80
2018-02-15T07:06:54.829Z,20.73
2018-02-15T07:09:21.512Z,23.23
2018-02-15T07:11:48.252Z,24.50
2018-02-15T07:14:14.940Z,25.45
2018-02-15T07:16:41.675Z,23.98
2018-02-15T07:19:08.368Z,19.85
2018-02-15T07:21:35.006Z,24.83
2018-02-15T07:24:01.644Z,20.70
2018-02-15T07:26:28.341Z,17.87
2018-02-15T07:28:54.984Z,21.15
2018-02-15T07:31:21.634Z,19.48
2018-02-15T07:33:48.276Z,27.70
2018-02-15T07:36:14.912Z,20.92
2018-02-15T07:38:41.731Z,23.40
2018-02-15T07:41:08.362Z,20.90
2018-02-15T07:43:35.009Z,25.02
2018-02-15T07:46:01.733Z,28.33
2018-02-15T07:48:28.415Z,20.73
2018-02-15T07:50:55.070Z,21.50
2018-02-15T07:53:21.733Z,24.55
2018-02-15T07:55:48.395Z,25.15
2018-02-15T07:58:15.059Z,22.87
2018-02-15T08:00:41.819Z,21.37
2018-02-15T08:03:08.472Z,23.02
2018-02-15T08:05:35.143Z,22.52
2018-02-15T08:08:01.782Z,24.25
2018-02-15T08:10:28.418Z,21.10
2018-02-15T08:12:55.064Z,25.30
2018-02-15T08:15:21.701Z,21.58
2018-02-15T08:17:48.342Z,22.90
2018-02-15T08:20:15.021Z,22.52
2018-02-15T08:22:41.684Z,21.98
2018-02-15T08:25:08.327Z,25.80
2018-02-15T08:27:34.964Z,19.05
2018-02-15T08:30:01.604Z,21.17
2018-02-15T08:32:28.250Z,22.90
2018-02-15T08:34:54.899Z,22.77
2018-02-15T08:37:21.543Z,20.83
2018-02-15T08:39:48.187Z,19.05
2018-02-15T08:42:14.837Z,18.23
2018-02-15T08:44:41.508Z,22.92
2018-02-15T08:47:08.171Z,24.40
2018-02-15T08:49:34.835Z,24.12
2018-02-15T08:52:01.491Z,24.83
2018-02-15T08:54:28.132Z,23.42
2018-02-15T08:56:54.827Z,23.10
2018-02-15T08:59:21.462Z,21.62
2018-02-15T09:01:48.104Z,24.40
2018-02-15T09:04:14.742Z,23.23
2018-02-15T09:06:41.416Z,22.17
2018-02-15T09:09:08.059Z,23.40
2018-02-15T09:11:34.706Z,22.23
2018-02-15T09:14:01.362Z,21.52
2018-02-15T09:16:27.998Z,24.52
2018-02-15T09:18:54.705Z,22.87
2018-02-15T09:21:21.346Z,21.08
2018-02-15T09:23:47.996Z,22.65
2018-02-15T09:26:14.641Z,21.75
2018-02-15T09:28:41.830Z,24.00
2018-02-15T09:31:08.558Z,19.08
2018-02-15T09:33:35.217Z,21.37
2018-02-15T09:36:01.856Z,24.40
2018-02-15T09:38:28.523Z,21.75
2018-02-15T09:40:55.166Z,22.33
2018-02-15T09:43:21.847Z,22.52
2018-02-15T09:45:48.509Z,19.12
2018-02-15T09:48:15.139Z,23.70
2018-02-15T09:50:41.779Z,24.70
2018-02-15T09:53:08.413Z,22.37
2018-02-15T09:55:35.074Z,21.45
2018-02-15T09:58:01.732Z,25.17
2018-02-15T10:00:28.398Z,19.52
2018-02-15T10:02:55.042Z,23.42
2018-02-15T10:05:21.706Z,22.00
2018-02-15T10:07:48.355Z,24.73
2018-02-15T10:10:15.677Z,24.20
2018-02-15T10:12:42.548Z,25.50
2018-02-15T10:15:09.200Z,25.98
2018-02-15T10:17:35.842Z,23.55
2018-02-15T10:20:02.515Z,20.15
2018-02-15T10:22:29.165Z,26.65
2018-02-15T10:24:55.870Z,22.05
2018-02-15T10:27:22.525Z,23.95
2018-02-15T10:29:49.185Z,20.48
2018-02-15T10:32:15.834Z,19.10
2018-02-15T10:34:43.473Z,22.08
2018-02-15T10:37:10.110Z,21.87
2018-02-15T10:39:36.776Z,22.60
2018-02-15T10:42:03.425Z,26.33
2018-02-15T10:44:30.070Z,20.23
2018-02-15T10:46:56.703Z,20.85
2018-02-15T10:49:23.374Z,21.87
2018-02-15T10:51:50.054Z,20.42
2018-02-15T10:54:16.761Z,18.60
2018-02-15T10:56:43.422Z,18.08
2018-02-15T10:59:10.072Z,18.52
2018-02-15T11:01:41.567Z,19.37
2018-02-15T11:04:23.095Z,18.42
2018-02-15T11:06:49.754Z,20.02
2018-02-15T11:09:16.412Z,19.45
2018-02-15T11:11:43.076Z,17.65
2018-02-15T11:14:09.716Z,19.45
2018-02-15T11:16:36.407Z,22.10
2018-02-15T11:19:03.078Z,22.98
2018-02-15T11:21:29.776Z,19.08
2018-02-15T11:23:56.433Z,18.00
2018-02-15T11:26:23.090Z,18.42
2018-02-15T11:28:49.784Z,23.08
2018-02-15T11:31:16.431Z,22.48
2018-02-15T11:33:43.081Z,21.92
2018-02-15T11:36:09.804Z,25.35
2018-02-15T11:38:36.448Z,24.02
2018-02-15T11:41:03.269Z,22.30
2018-02-15T11:43:29.923Z,24.12
2018-02-15T11:45:56.561Z,25.30
2018-02-15T11:48:23.226Z,25.62
2018-02-15T11:50:49.955Z,24.23
2018-02-15T11:53:16.635Z,23.50
2018-02-15T11:55:43.312Z,21.33
2018-02-15T11:58:09.971Z,25.20
2018-02-15T12:00:36.655Z,23.67
2018-02-15T12:03:03.342Z,25.08
2018-02-15T12:05:30.003Z,20.42
2018-02-15T12:07:56.709Z,24.87
2018-02-15T12:10:23.359Z,23.60
2018-02-15T12:12:50.043Z,26.58
2018-02-15T12:15:16.684Z,24.42
2018-02-15T12:17:43.399Z,21.58
2018-02-15T12:20:10.055Z,23.83
2018-02-15T12:22:36.732Z,19.87
2018-02-15T12:25:03.420Z,24.27
2018-02-15T12:27:30.080Z,26.98
2018-02-15T12:29:56.729Z,28.38
2018-02-15T12:32:23.363Z,27.10
2018-02-15T12:34:50.038Z,27.33
2018-02-15T12:37:16.883Z,25.30
2018-02-15T12:39:43.537Z,26.48
2018-02-15T12:42:10.189Z,26.75
2018-02-15T12:44:36.827Z,27.80
2018-02-15T12:47:03.486Z,30.75
2018-02-15T12:49:30.128Z,28.15
2018-02-15T12:51:56.779Z,25.90
2018-02-15T12:54:23.456Z,27.52
2018-02-15T12:56:50.199Z,28.62
2018-02-15T12:59:16.913Z,30.45
2018-02-15T13:01:43.593Z,29.45
2018-02-15T13:04:10.420Z,27.58
2018-02-15T13:06:37.117Z,30.12
2018-02-15T13:09:03.863Z,28.20
2018-02-15T13:11:30.514Z,30.27
2018-02-15T13:13:57.171Z,26.52
2018-02-15T13:16:29.704Z,31.95
2018-02-15T13:19:02.124Z,28.05
2018-02-15T13:21:28.798Z,34.38
2018-02-15T13:23:55.512Z,30.55
2018-02-15T13:26:22.151Z,27.73
2018-02-15T13:28:48.835Z,26.87
2018-02-15T13:31:15.476Z,29.02
2018-02-15T13:33:42.131Z,24.58
2018-02-15T13:36:08.769Z,29.58
2018-02-15T13:38:35.433Z,31.70
2018-02-15T13:41:02.068Z,33.10
2018-02-15T13:43:28.809Z,31.98
2018-02-15T13:45:55.594Z,27.73
2018-02-15T13:48:22.415Z,27.10
2018-02-15T13:50:49.057Z,28.73
2018-02-15T13:53:15.689Z,29.90
2018-02-15T13:55:42.340Z,29.85
2018-02-15T13:58:08.978Z,27.48
2018-02-15T14:00:35.636Z,29.10
2018-02-15T14:03:02.386Z,28.48
2018-02-15T14:05:30.482Z,31.67
2018-02-15T14:07:57.224Z,27.98
2018-02-15T14:10:24.091Z,31.30
2018-02-15T14:12:50.810Z,29.95
2018-02-15T14:15:17.467Z,29.63
2018-02-15T14:17:44.650Z,26.33
2018-02-15T14:20:11.361Z,29.75
2018-02-15T14:22:38.465Z,29.35
2018-02-15T14:25:05.210Z,37.63
2018-02-15T14:27:32.197Z,25.45
2018-02-15T14:29:59.024Z,25.92
2018-02-15T14:32:25.670Z,32.35
2018-02-15T14:34:52.622Z,28.60
2018-02-15T14:37:19.285Z,26.85
2018-02-15T14:39:45.918Z,29.12
2018-02-15T14:42:12.584Z,26.50
2018-02-15T14:44:39.223Z,26.25
2018-02-15T14:47:05.864Z,27.17
2018-02-15T14:49:32.535Z,28.70
2018-02-15T14:54:32.444Z,29.12
2018-02-15T14:56:59.082Z,30.25
2018-02-15T14:59:25.735Z,31.50
2018-02-15T15:01:52.388Z,27.67
2018-02-15T15:04:19.036Z,28.73
2018-02-15T15:06:45.694Z,27.83
2018-02-15T15:09:12.332Z,30.80
2018-02-15T15:11:38.997Z,26.95
2018-02-15T15:14:05.645Z,23.90
2018-02-15T15:16:32.296Z,25.70
2018-02-15T15:18:58.955Z,24.95
2018-02-15T15:21:25.607Z,27.08
2018-02-15T15:23:52.243Z,23.35
2018-02-15T15:26:18.883Z,24.00
2018-02-15T15:28:45.542Z,28.48
2018-02-15T15:31:12.191Z,28.73
2018-02-15T15:33:39.645Z,24.52
2018-02-15T15:36:06.297Z,22.52
2018-02-15T15:38:32.952Z,29.50
2018-02-15T15:40:59.590Z,25.30
2018-02-15T15:43:26.251Z,22.00
2018-02-15T15:45:52.925Z,24.25
2018-02-15T15:48:19.591Z,24.30
2018-02-15T15:50:46.256Z,27.35
2018-02-15T15:53:12.927Z,27.98
2018-02-15T15:55:39.568Z,28.87
2018-02-15T15:58:06.263Z,27.90
2018-02-15T16:00:32.914Z,25.77
2018-02-15T16:02:59.671Z,32.50
2018-02-15T16:05:26.383Z,30.90
2018-02-15T16:07:53.055Z,31.73
2018-02-15T16:10:19.703Z,27.17
2018-02-15T16:12:46.385Z,25.83
2018-02-15T16:15:13.043Z,26.27
2018-02-15T16:17:39.726Z,28.77
2018-02-15T16:20:06.367Z,31.25
2018-02-15T16:22:33.072Z,34.35
2018-02-15T16:24:59.705Z,29.45
2018-02-15T16:27:26.358Z,27.83
2018-02-15T16:29:53.371Z,32.78
2018-02-15T16:32:20.590Z,32.25
2018-02-15T16:34:48.143Z,27.58
2018-02-15T16:37:14.818Z,26.62
2018-02-15T16:39:41.459Z,34.20
2018-02-15T16:42:08.094Z,31.10
2018-02-15T16:44:34.757Z,32.58
2018-02-15T16:47:01.417Z,35.85
2018-02-15T16:49:28.070Z,33.95
2018-02-15T16:51:54.765Z,32.67
2018-02-15T16:54:21.424Z,37.20
2018-02-15T16:56:48.100Z,36.72
2018-02-15T16:59:14.731Z,33.15
2018-02-15T17:01:41.378Z,34.53
2018-02-15T17:04:08.051Z,30.77
2018-02-15T17:06:34.748Z,32.13
2018-02-15T17:09:01.445Z,33.92
2018-02-15T17:11:28.110Z,30.30
2018-02-15T17:13:54.773Z,30.62
2018-02-15T17:16:21.411Z,30.70
2018-02-15T17:18:48.103Z,30.50
2018-02-15T17:21:14.752Z,27.13
2018-02-15T17:23:41.399Z,27.05
2018-02-15T17:26:08.056Z,28.12
2018-02-15T17:28:34.692Z,32.40
2018-02-15T17:31:01.387Z,28.08
2018-02-15T17:33:28.232Z,27.20
2018-02-15T17:35:54.926Z,29.25
2018-02-15T17:38:21.593Z,32.88
2018-02-15T17:40:48.259Z,27.23
2018-02-15T17:43:14.934Z,30.20
2018-02-15T17:45:41.722Z,30.50
2018-02-15T17:48:08.477Z,32.05
2018-02-15T17:50:35.273Z,28.62
2018-02-15T17:53:02.413Z,25.62
2018-02-15T17:55:29.183Z,26.20
2018-02-15T17:57:55.895Z,26.45
2018-02-15T18:00:24.872Z,36.88
2018-02-15T18:02:51.968Z,25.42
2018-02-15T18:05:18.916Z,25.67
2018-02-15T18:07:45.605Z,26.23
2018-02-15T18:10:12.248Z,24.73
2018-02-15T18:12:39.466Z,29.77
2018-02-15T18:15:06.202Z,28.83
2018-02-15T18:17:33.457Z,31.23
2018-02-15T18:20:00.174Z,28.75
2018-02-15T18:22:26.811Z,26.90
2018-02-15T18:24:53.462Z,26.25
2018-02-15T18:27:20.118Z,24.30
2018-02-15T18:29:46.755Z,27.05
2018-02-15T18:32:13.442Z,25.50
2018-02-15T18:34:40.090Z,25.58
2018-02-15T18:37:06.754Z,21.37
2018-02-15T18:39:33.409Z,25.52
2018-02-15T18:42:00.049Z,26.55
2018-02-15T18:44:26.687Z,24.83
2018-02-15T18:46:53.354Z,24.55
2018-02-15T18:49:20.022Z,26.73
2018-02-15T18:51:46.686Z,23.90
2018-02-15T18:54:13.343Z,29.58
2018-02-15T18:56:39.994Z,28.12
2018-02-15T18:59:06.642Z,26.52
2018-02-15T19:01:33.362Z,28.58
2018-02-15T19:04:00.156Z,28.27
2018-02-15T19:06:26.832Z,29.25
2018-02-15T19:08:53.484Z,25.90
2018-02-15T19:11:20.184Z,33.55
2018-02-15T19:13:47.778Z,30.10
2018-02-15T19:16:14.441Z,30.73
2018-02-15T19:18:41.083Z,30.05
2018-02-15T19:21:07.749Z,29.83
2018-02-15T19:23:34.415Z,29.37
2018-02-15T19:26:01.139Z,28.30
2018-02-15T19:28:27.797Z,34.38
2018-02-15T19:30:54.476Z,29.83
2018-02-15T19:33:21.115Z,30.60
2018-02-15T19:35:47.914Z,30.05
2018-02-15T19:38:14.596Z,34.22
2018-02-15T19:40:41.462Z,32.58
2018-02-15T19:43:08.290Z,29.42
2018-02-15T19:45:35.103Z,31.42
2018-02-15T19:48:01.758Z,30.95
2018-02-15T19:50:28.429Z,30.20
2018-02-15T19:52:55.110Z,28.83
2018-02-15T19:55:21.749Z,28.77
2018-02-15T19:57:48.507Z,33.22
2018-02-15T20:00:15.180Z,32.97
2018-02-15T20:02:42.446Z,36.08
2018-02-15T20:05:09.554Z,34.03
2018-02-15T20:07:37.119Z,33.65
2018-02-15T20:10:03.901Z,33.60
2018-02-15T20:12:30.786Z,37.90
2018-02-15T20:14:57.723Z,36.35
2018-02-15T20:17:24.533Z,39.65
2018-02-15T20:19:57.122Z,42.28
2018-02-15T20:22:24.115Z,36.97
2018-02-15T20:24:51.250Z,39.55
2018-02-15T20:27:23.637Z,41.13
2018-02-15T20:29:50.537Z,41.20
2018-02-15T20:32:17.186Z,37.88
2018-02-15T20:34:43.829Z,42.25
2018-02-15T20:37:10.480Z,42.08
2018-02-15T20:39:42.912Z,41.47
2018-02-15T20:42:09.733Z,50.83
2018-02-15T20:44:36.396Z,45.05
2018-02-15T20:47:03.317Z,47.35
2018-02-15T20:49:36.273Z,49.20
2018-02-15T20:52:08.764Z,42.42
2018-02-15T20:54:41.624Z,53.05
2018-02-15T20:57:08.367Z,48.25
2018-02-15T20:59:35.236Z,46.05
2018-02-15T21:02:01.995Z,46.45
2018-02-15T21:04:28.772Z,46.63
2018-02-15T21:06:55.823Z,47.65
2018-02-15T21:09:22.523Z,52.17
2018-02-15T21:11:49.245Z,49.78
2018-02-15T21:14:16.241Z,49.15
2018-02-15T21:16:43.016Z,58.83
2018-02-15T21:19:10.016Z,56.60
2018-02-15T21:21:36.797Z,63.65
2018-02-15T21:24:03.794Z,58.90
2018-02-15T21:26:30.555Z,65.28
2018-02-15T21:28:57.277Z,67.03
2018-02-15T21:31:24.623Z,68.72
2018-02-15T21:33:51.352Z,60.88
2018-02-15T21:36:18.304Z,68.78
2018-02-15T21:38:45.060Z,79.68
2018-02-15T21:41:11.804Z,68.65
2018-02-15T21:43:38.843Z,74.90
2018-02-15T21:46:05.512Z,76.82
2018-02-15T21:48:32.350Z,73.28
2018-02-15T21:50:59.185Z,76.65
2018-02-15T21:53:26.238Z,72.25
2018-02-15T21:55:52.937Z,84.97
2018-02-15T21:58:19.965Z,78.47
2018-02-15T22:00:46.863Z,101.10
2018-02-15T22:03:13.551Z,80.62
2018-02-15T22:05:40.257Z,83.28
2018-02-15T22:08:07.283Z,103.80
2018-02-15T22:10:33.964Z,81.47
2018-02-15T22:13:00.627Z,92.12
2018-02-15T22:15:27.930Z,78.18
2018-02-15T22:17:54.758Z,80.95
2018-02-15T22:20:22.427Z,92.37
2018-02-15T22:22:49.364Z,88.22
2018-02-15T22:25:16.343Z,92.32
2018-02-15T22:27:42.989Z,95.50
2018-02-15T22:30:09.640Z,97.68
2018-02-15T22:32:36.282Z,85.65
2018-02-15T22:35:03.133Z,96.65
2018-02-15T22:37:30.084Z,97.85
2018-02-15T22:39:56.821Z,91.60
2018-02-15T22:42:23.541Z,95.05
2018-02-15T22:44:50.425Z,64.95
2018-02-15T22:47:17.184Z,66.85
2018-02-15T22:49:44.084Z,75.60
2018-02-15T22:52:10.837Z,76.65
2018-02-15T22:54:38.006Z,74.45
2018-02-15T22:57:04.679Z,88.95
2018-02-15T22:59:31.615Z,73.37
2018-02-15T23:01:58.397Z,73.35
2018-02-15T23:04:25.405Z,73.82
2018-02-15T23:06:52.118Z,72.87
2018-02-15T23:09:18.750Z,75.15
2018-02-15T23:11:45.424Z,68.50
2018-02-15T23:14:12.061Z,67.30
2018-02-15T23:16:38.700Z,71.82
2018-02-15T23:19:05.346Z,69.53
2018-02-15T23:21:32.066Z,75.70
2018-02-15T23:23:58.788Z,76.30
2018-02-15T23:26:25.456Z,75.43
2018-02-15T23:28:52.124Z,77.18
2018-02-15T23:31:18.895Z,68.50
2018-02-15T23:33:46.030Z,68.57
2018-02-15T23:36:12.728Z,70.90
2018-02-15T23:38:39.449Z,66.37
2018-02-15T23:41:06.137Z,66.93
2018-02-15T23:43:33.110Z,66.57
2018-02-15T23:45:59.774Z,77.45
2018-02-15T23:48:26.436Z,67.72
2018-02-15T23:50:53.079Z,65.12
2018-02-15T23:53:19.730Z,66.03
2018-02-15T23:55:46.374Z,67.35
2018-02-15T23:58:13.067Z,75.80
